Time;durP1;ratioP1;P1;durP2;ratioP2;P2;SDS_P1;SDS_P2;PMS_P1;PMS_P2;Temp;Humidity;BMP_temperature;BMP_pressure;BME280_temperature;BME280_humidity;BME280_pressure;Samples;Min_cycle;Max_cycle;Signal;HPM_P1;HPM_P2
2021/11/15 00:00:45;;;;;;;0.10;0.10;;;;;;;;;;5088176;28;20056;-85
2021/11/15 00:03:12;;;;;;;0.20;0.20;;;;;;;;;;5089015;28;20106;-87
2021/11/15 00:05:39;;;;;;;0.20;0.20;;;;;;;;;;5103549;28;20442;-87
2021/11/15 00:08:05;;;;;;;0.10;0.10;;;;;;;;;;5102765;27;20483;-86
2021/11/15 00:10:31;;;;;;;0.20;0.20;;;;;;;;;;5087078;28;20039;-86
2021/11/15 00:12:57;;;;;;;0.17;0.17;;;;;;;;;;5087623;28;20036;-83
2021/11/15 00:15:23;;;;;;;0.10;0.10;;;;;;;;;;5086331;28;20714;-83
2021/11/15 00:17:50;;;;;;;0.20;0.20;;;;;;;;;;5090786;28;20028;-82
2021/11/15 00:20:16;;;;;;;0.10;0.10;;;;;;;;;;5094492;28;20509;-82
2021/11/15 00:22:42;;;;;;;0.10;0.10;;;;;;;;;;5086191;28;20040;-86
2021/11/15 00:25:09;;;;;;;0.13;0.13;;;;;;;;;;5100279;28;20044;-86
2021/11/15 00:27:36;;;;;;;0.10;0.10;;;;;;;;;;5086516;28;20032;-87
2021/11/15 00:30:02;;;;;;;0.20;0.20;;;;;;;;;;5085413;28;20032;-86
2021/11/15 00:32:28;;;;;;;0.10;0.10;;;;;;;;;;5087842;28;20051;-86
2021/11/15 00:34:54;;;;;;;0.10;0.10;;;;;;;;;;5085860;28;20031;-86
2021/11/15 00:37:20;;;;;;;0.20;0.20;;;;;;;;;;5085766;28;20309;-87
2021/11/15 00:39:47;;;;;;;0.10;0.10;;;;;;;;;;5087017;28;20601;-85
2021/11/15 00:42:13;;;;;;;0.10;0.10;;;;;;;;;;5088647;28;20096;-86
2021/11/15 00:44:40;;;;;;;0.10;0.10;;;;;;;;;;5086170;28;20180;-86
2021/11/15 00:47:06;;;;;;;0.10;0.10;;;;;;;;;;5085223;28;20028;-87
2021/11/15 00:49:32;;;;;;;0.10;0.10;;;;;;;;;;5084911;28;20499;-83
2021/11/15 00:51:58;;;;;;;0.10;0.10;;;;;;;;;;5084766;28;20024;-85
2021/11/15 00:54:24;;;;;;;0.10;0.10;;;;;;;;;;5084927;28;20032;-85
2021/11/15 00:56:50;;;;;;;0.10;0.10;;;;;;;;;;5086479;28;20475;-83
2021/11/15 00:59:16;;;;;;;0.10;0.10;;;;;;;;;;5087483;28;20043;-84
2021/11/15 01:01:42;;;;;;;0.20;0.20;;;;;;;;;;5086146;28;20336;-85
2021/11/15 01:04:09;;;;;;;0.13;0.13;;;;;;;;;;5083974;28;20039;-85
2021/11/15 01:06:35;;;;;;;0.15;0.15;;;;;;;;;;5086209;28;20285;-84
2021/11/15 01:09:01;;;;;;;0.10;0.10;;;;;;;;;;5085796;28;20102;-84
2021/11/15 01:11:27;;;;;;;0.10;0.10;;;;;;;;;;5086747;28;20024;-84
2021/11/15 01:13:55;;;;;;;0.10;0.10;;;;;;;;;;5087653;28;20035;-85
2021/11/15 01:16:21;;;;;;;0.10;0.10;;;;;;;;;;5083961;28;20029;-85
2021/11/15 01:18:50;;;;;;;0.10;0.10;;;;;;;;;;5076067;28;20233;-84
2021/11/15 01:21:16;;;;;;;0.10;0.10;;;;;;;;;;5083889;28;20048;-84
2021/11/15 01:23:43;;;;;;;0.15;0.15;;;;;;;;;;5085999;28;20035;-84
2021/11/15 01:26:09;;;;;;;0.10;0.10;;;;;;;;;;5084556;28;20036;-85
2021/11/15 01:28:36;;;;;;;0.20;0.20;;;;;;;;;;5085279;28;20024;-84
2021/11/15 01:31:03;;;;;;;0.10;0.10;;;;;;;;;;5085072;28;20050;-84
2021/11/15 01:33:29;;;;;;;0.10;0.10;;;;;;;;;;5083524;28;20036;-84
2021/11/15 01:35:55;;;;;;;0.10;0.10;;;;;;;;;;5087277;28;20030;-84
2021/11/15 01:38:21;;;;;;;0.10;0.10;;;;;;;;;;5085518;28;20024;-84
2021/11/15 01:40:48;;;;;;;0.10;0.10;;;;;;;;;;5079878;28;20036;-85
2021/11/15 01:43:14;;;;;;;0.10;0.10;;;;;;;;;;5085234;28;20106;-84
2021/11/15 01:45:40;;;;;;;0.10;0.10;;;;;;;;;;5099838;28;20428;-86
2021/11/15 01:48:07;;;;;;;0.10;0.10;;;;;;;;;;5084044;28;20466;-86
2021/11/15 01:50:33;;;;;;;;;;;;;;;;;;5086723;28;20036;-87
2021/11/15 01:52:59;;;;;;;0.10;0.10;;;;;;;;;;5081821;28;20363;-85
2021/11/15 01:55:27;;;;;;;0.10;0.10;;;;;;;;;;5082653;28;20690;-85
2021/11/15 01:57:54;;;;;;;0.20;0.20;;;;;;;;;;5085111;28;20306;-85
2021/11/15 02:00:23;;;;;;;0.10;0.10;;;;;;;;;;5085342;28;20059;-86
2021/11/15 02:02:49;;;;;;;0.10;0.10;;;;;;;;;;5087376;28;20027;-86
2021/11/15 02:05:15;;;;;;;0.10;0.10;;;;;;;;;;5074330;28;20045;-85
2021/11/15 02:07:41;;;;;;;0.17;0.17;;;;;;;;;;5077282;28;21204;-85
2021/11/15 02:10:09;;;;;;;0.10;0.10;;;;;;;;;;5085043;28;20410;-86
2021/11/15 02:12:35;;;;;;;0.10;0.10;;;;;;;;;;5099608;28;20031;-86
2021/11/15 02:15:01;;;;;;;0.10;0.10;;;;;;;;;;5083567;28;20062;-86
2021/11/15 02:17:27;;;;;;;0.10;0.10;;;;;;;;;;5084058;28;20510;-85
2021/11/15 02:19:53;;;;;;;0.10;0.10;;;;;;;;;;5083964;28;20482;-85
2021/11/15 02:22:19;;;;;;;0.20;0.20;;;;;;;;;;5081010;28;20083;-86
2021/11/15 02:24:45;;;;;;;0.20;0.20;;;;;;;;;;5095651;28;20044;-85
2021/11/15 02:27:12;;;;;;;0.20;0.20;;;;;;;;;;5085145;28;20085;-85
2021/11/15 02:29:39;;;;;;;0.20;0.20;;;;;;;;;;5083792;28;20028;-85
2021/11/15 02:32:05;;;;;;;0.20;0.20;;;;;;;;;;5082448;28;20049;-87
2021/11/15 02:34:32;;;;;;;0.10;0.10;;;;;;;;;;5083806;28;20059;-87
2021/11/15 02:36:58;;;;;;;0.10;0.10;;;;;;;;;;5083172;28;20032;-87
2021/11/15 02:39:24;;;;;;;0.10;0.10;;;;;;;;;;5084159;28;20491;-87
2021/11/15 02:41:50;;;;;;;0.20;0.20;;;;;;;;;;5085501;28;20566;-86
2021/11/15 02:44:16;;;;;;;0.10;0.10;;;;;;;;;;5084375;28;20502;-89
2021/11/15 02:46:42;;;;;;;0.10;0.10;;;;;;;;;;5083053;28;20518;-86
2021/11/15 02:49:08;;;;;;;0.10;0.10;;;;;;;;;;5083948;28;20483;-85
2021/11/15 02:51:34;;;;;;;0.20;0.20;;;;;;;;;;5083829;28;20032;-86
2021/11/15 02:54:00;;;;;;;0.20;0.20;;;;;;;;;;5083887;28;20114;-83
2021/11/15 02:56:26;;;;;;;0.10;0.10;;;;;;;;;;5083732;28;20031;-82
2021/11/15 02:58:53;;;;;;;0.10;0.10;;;;;;;;;;5083737;28;20043;-83
2021/11/15 03:01:20;;;;;;;0.20;0.20;;;;;;;;;;5083527;28;20020;-84
2021/11/15 03:03:46;;;;;;;0.20;0.20;;;;;;;;;;5097053;28;20593;-83
2021/11/15 03:06:12;;;;;;;0.20;0.20;;;;;;;;;;5083130;28;20439;-84
2021/11/15 03:08:39;;;;;;;0.20;0.20;;;;;;;;;;5084443;28;20020;-84
2021/11/15 03:11:06;;;;;;;0.20;0.20;;;;;;;;;;5085405;28;20024;-82
2021/11/15 03:13:37;;;;;;;0.13;0.13;;;;;;;;;;5080131;28;20063;-84
2021/11/15 03:16:04;;;;;;;0.10;0.10;;;;;;;;;;5085730;28;20376;-88
2021/11/15 03:18:31;;;;;;;0.20;0.20;;;;;;;;;;5099757;28;20024;-86
2021/11/15 03:21:08;;;;;;;0.20;0.20;;;;;;;;;;5099647;28;20116;-87
2021/11/15 03:23:36;;;;;;;0.10;0.10;;;;;;;;;;5086965;28;20051;-85
2021/11/15 03:26:02;;;;;;;0.10;0.10;;;;;;;;;;5081316;28;20111;-86
2021/11/15 03:28:30;;;;;;;0.10;0.10;;;;;;;;;;5080530;28;20112;-86
2021/11/15 03:30:58;;;;;;;0.10;0.10;;;;;;;;;;5097562;28;20050;-86
2021/11/15 03:33:26;;;;;;;0.20;0.20;;;;;;;;;;5101075;28;20437;-86
2021/11/15 03:35:52;;;;;;;0.10;0.10;;;;;;;;;;5087176;28;20503;-85
2021/11/15 03:38:18;;;;;;;0.20;0.20;;;;;;;;;;5092689;28;20025;-86
2021/11/15 03:40:44;;;;;;;0.10;0.10;;;;;;;;;;5080364;28;20036;-86
2021/11/15 03:43:11;;;;;;;0.20;0.20;;;;;;;;;;5082799;28;20525;-86
2021/11/15 03:45:37;;;;;;;0.10;0.10;;;;;;;;;;5094873;28;20035;-85
2021/11/15 03:48:04;;;;;;;0.10;0.10;;;;;;;;;;5083110;28;20338;-83
2021/11/15 03:50:30;;;;;;;0.10;0.10;;;;;;;;;;5085889;28;20102;-86
2021/11/15 03:52:57;;;;;;;0.20;0.20;;;;;;;;;;5083984;28;20020;-85
2021/11/15 03:55:23;;;;;;;0.10;0.10;;;;;;;;;;5083435;28;20028;-84
2021/11/15 03:57:50;;;;;;;0.10;0.10;;;;;;;;;;5083066;28;20039;-84
2021/11/15 04:00:18;;;;;;;0.20;0.20;;;;;;;;;;5080458;28;20042;-84
2021/11/15 04:02:45;;;;;;;0.20;0.20;;;;;;;;;;5083831;28;20469;-83
2021/11/15 04:05:12;;;;;;;0.10;0.10;;;;;;;;;;5083078;28;20036;-83
2021/11/15 04:07:49;;;;;;;0.20;0.20;;;;;;;;;;5078698;28;20025;-84
2021/11/15 04:10:25;;;;;;;0.10;0.10;;;;;;;;;;5082721;28;20028;-84
2021/11/15 04:12:51;;;;;;;0.13;0.13;;;;;;;;;;5083548;28;20035;-86
2021/11/15 04:15:18;;;;;;;0.20;0.20;;;;;;;;;;5081403;28;20043;-84
2021/11/15 04:17:44;;;;;;;0.10;0.10;;;;;;;;;;5084002;28;20027;-84
2021/11/15 04:20:12;;;;;;;0.20;0.20;;;;;;;;;;5079752;28;20032;-84
2021/11/15 04:22:38;;;;;;;0.20;0.20;;;;;;;;;;5081803;28;20063;-86
2021/11/15 04:25:06;;;;;;;0.20;0.20;;;;;;;;;;5085867;28;20451;-87
2021/11/15 04:27:32;;;;;;;0.20;0.20;;;;;;;;;;5099431;28;20036;-88
2021/11/15 04:29:58;;;;;;;0.20;0.20;;;;;;;;;;5084016;28;20035;-88
2021/11/15 04:32:24;;;;;;;0.10;0.10;;;;;;;;;;5084495;28;20024;-86
2021/11/15 04:34:50;;;;;;;0.20;0.20;;;;;;;;;;5081830;28;20062;-87
2021/11/15 04:37:16;;;;;;;0.20;0.20;;;;;;;;;;5086349;28;20028;-87
2021/11/15 04:39:42;;;;;;;0.20;0.20;;;;;;;;;;5102164;28;20039;-86
2021/11/15 04:42:08;;;;;;;0.10;0.10;;;;;;;;;;5087923;28;20036;-86
2021/11/15 04:44:34;;;;;;;0.20;0.20;;;;;;;;;;5104121;28;20038;-87
2021/11/15 04:47:01;;;;;;;0.10;0.10;;;;;;;;;;5087297;28;20150;-87
2021/11/15 04:49:27;;;;;;;0.10;0.10;;;;;;;;;;5086466;28;20538;-86
2021/11/15 04:51:53;;;;;;;0.10;0.10;;;;;;;;;;5086559;28;20032;-87
2021/11/15 04:54:19;;;;;;;0.10;0.10;;;;;;;;;;5085450;28;20046;-88
2021/11/15 04:56:45;;;;;;;0.17;0.17;;;;;;;;;;5087794;28;20062;-88
2021/11/15 04:59:11;;;;;;;0.10;0.10;;;;;;;;;;5078428;28;20072;-86
2021/11/15 05:01:37;;;;;;;0.20;0.20;;;;;;;;;;5086855;28;20028;-86
2021/11/15 05:04:04;;;;;;;0.10;0.10;;;;;;;;;;5085221;28;20703;-85
2021/11/15 05:06:30;;;;;;;0.10;0.10;;;;;;;;;;5084841;28;20115;-85
2021/11/15 05:08:56;;;;;;;0.10;0.10;;;;;;;;;;5086405;28;20479;-85
2021/11/15 05:11:23;;;;;;;0.10;0.10;;;;;;;;;;5087233;28;20788;-85
2021/11/15 05:13:49;;;;;;;;;;;;;;;;;;5099141;28;20277;-88
2021/11/15 05:16:15;;;;;;;0.10;0.10;;;;;;;;;;5088169;28;19969;-87
2021/11/15 05:18:42;;;;;;;0.10;0.10;;;;;;;;;;5087959;28;20046;-87
2021/11/15 05:21:08;;;;;;;0.10;0.10;;;;;;;;;;5087335;28;20059;-88
2021/11/15 05:23:35;;;;;;;0.20;0.20;;;;;;;;;;5087809;28;20727;-87
2021/11/15 05:26:01;;;;;;;0.20;0.20;;;;;;;;;;5102577;28;20038;-87
2021/11/15 05:28:27;;;;;;;0.10;0.10;;;;;;;;;;5086207;28;20039;-82
2021/11/15 05:30:53;;;;;;;0.20;0.20;;;;;;;;;;5083501;28;20411;-82
2021/11/15 05:33:19;;;;;;;0.10;0.10;;;;;;;;;;5097603;28;20021;-81
2021/11/15 05:35:45;;;;;;;0.10;0.10;;;;;;;;;;5085348;28;20028;-82
2021/11/15 05:38:12;;;;;;;0.10;0.10;;;;;;;;;;5100638;28;20612;-84
2021/11/15 05:40:38;;;;;;;0.10;0.10;;;;;;;;;;5088041;28;20053;-87
2021/11/15 05:43:04;;;;;;;0.10;0.10;;;;;;;;;;5102124;28;20740;-86
2021/11/15 05:45:30;;;;;;;0.10;0.10;;;;;;;;;;5083822;28;20130;-86
2021/11/15 05:47:56;;;;;;;0.22;0.22;;;;;;;;;;5085831;28;20040;-91
2021/11/15 05:50:24;;;;;;;0.30;0.30;;;;;;;;;;5100232;28;20075;-85
2021/11/15 05:52:50;;;;;;;0.22;0.22;;;;;;;;;;5084387;28;20445;-83
2021/11/15 05:55:17;;;;;;;0.10;0.10;;;;;;;;;;5098702;28;20503;-83
2021/11/15 05:57:44;;;;;;;0.30;0.30;;;;;;;;;;5084470;28;20779;-83
2021/11/15 06:00:12;;;;;;;0.30;0.30;;;;;;;;;;5083421;28;20024;-84
2021/11/15 06:02:38;;;;;;;0.20;0.20;;;;;;;;;;5085568;28;20042;-83
2021/11/15 06:05:05;;;;;;;0.20;0.20;;;;;;;;;;5082135;28;20067;-83
2021/11/15 06:07:31;;;;;;;0.20;0.20;;;;;;;;;;5081750;28;20024;-83
2021/11/15 06:09:57;;;;;;;0.20;0.20;;;;;;;;;;5085468;28;20051;-84
2021/11/15 06:12:23;;;;;;;0.20;0.20;;;;;;;;;;5085492;28;20122;-83
2021/11/15 06:14:49;;;;;;;0.20;0.20;;;;;;;;;;5085603;28;20127;-81
2021/11/15 06:17:15;;;;;;;0.10;0.10;;;;;;;;;;5083938;28;20049;-83
2021/11/15 06:19:42;;;;;;;0.20;0.20;;;;;;;;;;5083601;28;20349;-83
2021/11/15 06:22:08;;;;;;;0.20;0.20;;;;;;;;;;5084156;28;20411;-84
2021/11/15 06:24:34;;;;;;;0.20;0.20;;;;;;;;;;5083747;28;20718;-83
2021/11/15 06:27:01;;;;;;;0.20;0.20;;;;;;;;;;5082624;28;20050;-84
2021/11/15 06:29:27;;;;;;;0.20;0.20;;;;;;;;;;5085089;28;20046;-83
2021/11/15 06:31:53;;;;;;;0.20;0.20;;;;;;;;;;5083053;28;20024;-82
2021/11/15 06:34:19;;;;;;;0.20;0.20;;;;;;;;;;5082901;28;20036;-81
2021/11/15 06:36:45;;;;;;;0.20;0.20;;;;;;;;;;5079899;28;20278;-82
2021/11/15 06:39:11;;;;;;;0.10;0.10;;;;;;;;;;5081471;28;20035;-83
2021/11/15 06:41:37;;;;;;;0.20;0.20;;;;;;;;;;5082342;28;20121;-83
2021/11/15 06:44:05;;;;;;;0.10;0.10;;;;;;;;;;5078092;28;20081;-83
2021/11/15 06:46:31;;;;;;;0.10;0.10;;;;;;;;;;5091002;28;20040;-84
2021/11/15 06:48:57;;;;;;;0.20;0.20;;;;;;;;;;5083334;28;20036;-84
2021/11/15 06:51:24;;;;;;;0.10;0.10;;;;;;;;;;5097312;28;20035;-85
2021/11/15 06:53:50;;;;;;;0.20;0.20;;;;;;;;;;5085062;28;20024;-83
2021/11/15 06:56:16;;;;;;;0.10;0.10;;;;;;;;;;5087064;28;20036;-84
2021/11/15 06:58:42;;;;;;;0.20;0.20;;;;;;;;;;5074293;28;20607;-83
2021/11/15 07:01:09;;;;;;;0.20;0.20;;;;;;;;;;5085354;28;20342;-84
2021/11/15 07:03:35;;;;;;;0.20;0.20;;;;;;;;;;5096653;28;20060;-88
2021/11/15 07:06:02;;;;;;;0.10;0.10;;;;;;;;;;5070733;28;20051;-83
2021/11/15 07:08:29;;;;;;;0.15;0.15;;;;;;;;;;5079217;28;20554;-83
2021/11/15 07:10:55;;;;;;;0.10;0.10;;;;;;;;;;5093710;28;20019;-83
2021/11/15 07:13:21;;;;;;;0.20;0.20;;;;;;;;;;5078262;28;20024;-83
2021/11/15 07:15:48;;;;;;;0.20;0.20;;;;;;;;;;5094597;28;20028;-81
2021/11/15 07:18:14;;;;;;;0.20;0.20;;;;;;;;;;5081677;28;20036;-83
2021/11/15 07:20:41;;;;;;;0.30;0.30;;;;;;;;;;5080549;28;20020;-81
2021/11/15 07:23:07;;;;;;;0.20;0.20;;;;;;;;;;5077748;28;20055;-82
2021/11/15 07:25:34;;;;;;;0.20;0.20;;;;;;;;;;5078093;28;20067;-81
2021/11/15 07:28:00;;;;;;;0.30;0.30;;;;;;;;;;5081232;28;20052;-80
2021/11/15 07:30:26;;;;;;;0.30;0.30;;;;;;;;;;5066701;28;20028;-80
2021/11/15 07:32:52;;;;;;;0.15;0.15;;;;;;;;;;5081280;28;20097;-86
2021/11/15 07:35:19;;;;;;;0.10;0.10;;;;;;;;;;5080506;28;20028;-81
2021/11/15 07:37:45;;;;;;;0.10;0.10;;;;;;;;;;5078056;28;20106;-84
2021/11/15 07:40:13;;;;;;;0.10;0.10;;;;;;;;;;5077730;28;20491;-81
2021/11/15 07:42:39;;;;;;;0.10;0.10;;;;;;;;;;5080040;28;20273;-83
2021/11/15 07:45:06;;;;;;;0.10;0.10;;;;;;;;;;5078617;28;20036;-83
2021/11/15 07:47:33;;;;;;;0.20;0.20;;;;;;;;;;5082066;28;20374;-83
2021/11/15 07:50:00;;;;;;;0.20;0.20;;;;;;;;;;5081689;28;20058;-84
2021/11/15 07:52:26;;;;;;;0.20;0.20;;;;;;;;;;5077530;28;20085;-84
2021/11/15 07:54:52;;;;;;;0.20;0.20;;;;;;;;;;5078159;28;20500;-84
2021/11/15 07:57:18;;;;;;;0.10;0.10;;;;;;;;;;5080079;28;20028;-86
2021/11/15 07:59:45;;;;;;;0.10;0.10;;;;;;;;;;5095615;28;20118;-83
2021/11/15 08:02:12;;;;;;;0.10;0.10;;;;;;;;;;5080305;28;20028;-83
2021/11/15 08:04:39;;;;;;;0.10;0.10;;;;;;;;;;5075819;28;20106;-81
2021/11/15 08:07:05;;;;;;;0.20;0.20;;;;;;;;;;5070143;28;20028;-88
2021/11/15 08:09:31;;;;;;;0.20;0.20;;;;;;;;;;5088111;28;20066;-85
2021/11/15 08:12:01;;;;;;;0.20;0.20;;;;;;;;;;5084212;28;20064;-84
2021/11/15 08:14:28;;;;;;;0.20;0.20;;;;;;;;;;5083936;28;20085;-84
2021/11/15 08:16:54;;;;;;;0.20;0.20;;;;;;;;;;5085432;28;20605;-82
2021/11/15 08:19:20;;;;;;;0.20;0.20;;;;;;;;;;5079850;28;20028;-83
2021/11/15 08:21:47;;;;;;;0.20;0.20;;;;;;;;;;5069346;28;20083;-83
2021/11/15 08:24:25;;;;;;;0.10;0.10;;;;;;;;;;5084216;28;20074;-82
2021/11/15 08:26:56;;;;;;;0.10;0.10;;;;;;;;;;5099493;28;20086;-82
2021/11/15 08:29:25;;;;;;;0.20;0.20;;;;;;;;;;5073024;28;20039;-83
2021/11/15 08:31:51;;;;;;;0.20;0.20;;;;;;;;;;5076845;28;20028;-82
2021/11/15 08:34:18;;;;;;;0.20;0.20;;;;;;;;;;5080526;28;20039;-81
2021/11/15 08:36:44;;;;;;;0.20;0.20;;;;;;;;;;5082242;28;20032;-82
2021/11/15 08:39:14;;;;;;;0.20;0.20;;;;;;;;;;5081718;28;20391;-82
2021/11/15 08:41:45;;;;;;;0.30;0.30;;;;;;;;;;5083002;28;20035;-82
2021/11/15 08:44:11;;;;;;;0.30;0.30;;;;;;;;;;5080054;28;20044;-82
2021/11/15 08:46:38;;;;;;;0.20;0.20;;;;;;;;;;5080245;28;20024;-83
2021/11/15 08:49:05;;;;;;;0.20;0.20;;;;;;;;;;5079983;28;20139;-82
2021/11/15 08:51:31;;;;;;;0.20;0.20;;;;;;;;;;5083406;28;20406;-82
2021/11/15 08:53:59;;;;;;;0.30;0.30;;;;;;;;;;5082734;28;20458;-82
2021/11/15 08:56:25;;;;;;;0.30;0.30;;;;;;;;;;5096389;28;20254;-82
2021/11/15 08:58:51;;;;;;;0.30;0.30;;;;;;;;;;5095268;28;20558;-82
2021/11/15 09:01:18;;;;;;;0.20;0.20;;;;;;;;;;5094986;28;20047;-83
2021/11/15 09:03:45;;;;;;;0.20;0.20;;;;;;;;;;5081060;28;20732;-82
2021/11/15 09:06:11;;;;;;;;;;;;;;;;;;5083209;28;20510;-82
2021/11/15 09:08:38;;;;;;;0.20;0.20;;;;;;;;;;5081819;28;19950;-82
2021/11/15 09:11:04;;;;;;;0.20;0.20;;;;;;;;;;5079196;28;20044;-82
2021/11/15 09:13:31;;;;;;;0.20;0.20;;;;;;;;;;5079459;28;20077;-82
2021/11/15 09:15:57;;;;;;;0.20;0.20;;;;;;;;;;5079386;28;20028;-82
2021/11/15 09:18:23;;;;;;;0.20;0.20;;;;;;;;;;5082629;28;20111;-82
2021/11/15 09:20:49;;;;;;;0.20;0.20;;;;;;;;;;5081970;28;20066;-83
2021/11/15 09:23:15;;;;;;;0.20;0.20;;;;;;;;;;5094078;28;20484;-83
2021/11/15 09:25:42;;;;;;;0.35;0.35;;;;;;;;;;5093928;28;20040;-82
2021/11/15 09:28:12;;;;;;;0.20;0.20;;;;;;;;;;5094898;28;20042;-82
2021/11/15 09:30:39;;;;;;;0.20;0.20;;;;;;;;;;5081988;28;20024;-82
2021/11/15 09:33:06;;;;;;;0.20;0.20;;;;;;;;;;5066792;28;20028;-82
2021/11/15 09:35:33;;;;;;;0.20;0.20;;;;;;;;;;5081433;28;20032;-82
2021/11/15 09:37:59;;;;;;;;;;;;;;;;;;5094627;28;20097;-82
2021/11/15 09:40:25;;;;;;;;;;;;;;;;;;5078676;28;19912;-82
2021/11/15 09:42:54;;;;;;;0.20;0.20;;;;;;;;;;5067586;28;19912;-82
2021/11/15 09:45:20;;;;;;;0.10;0.10;;;;;;;;;;5082056;28;20751;-82
2021/11/15 09:47:46;;;;;;;0.17;0.17;;;;;;;;;;5085811;28;20052;-82
2021/11/15 09:50:14;;;;;;;0.20;0.20;;;;;;;;;;5078611;28;20085;-82
2021/11/15 09:52:40;;;;;;;0.20;0.20;;;;;;;;;;5078906;28;20335;-82
2021/11/15 09:55:07;;;;;;;0.20;0.20;;;;;;;;;;5080241;28;20453;-82
2021/11/15 09:57:38;;;;;;;0.13;0.13;;;;;;;;;;5067751;28;20271;-82
2021/11/15 10:00:06;;;;;;;0.20;0.20;;;;;;;;;;5081903;28;20026;-81
2021/11/15 10:02:32;;;;;;;0.20;0.20;;;;;;;;;;5081046;28;20452;-82
2021/11/15 10:04:58;;;;;;;0.10;0.10;;;;;;;;;;5088011;28;20123;-82
2021/11/15 10:07:45;;;;;;;0.20;0.20;;;;;;;;;;5070614;28;20509;-82
2021/11/15 10:10:10;;;;;;;;;;;;;;;;;;5070065;28;20039;-82
2021/11/15 10:12:36;;;;;;;0.20;0.20;;;;;;;;;;5082107;28;19912;-82
2021/11/15 10:15:06;;;;;;;0.20;0.20;;;;;;;;;;5083295;28;20039;-82
2021/11/15 10:17:39;;;;;;;0.20;0.20;;;;;;;;;;5080843;28;20376;-82
2021/11/15 10:20:06;;;;;;;0.10;0.10;;;;;;;;;;5078187;28;20541;-82
2021/11/15 10:22:32;;;;;;;0.20;0.20;;;;;;;;;;5077451;28;20427;-82
2021/11/15 10:24:58;;;;;;;1.40;1.30;;;;;;;;;;5069687;28;20055;-82
2021/11/15 10:27:27;;;;;;;0.10;0.10;;;;;;;;;;5066896;28;20025;-82
2021/11/15 10:29:54;;;;;;;0.10;0.10;;;;;;;;;;5080912;28;20036;-83
2021/11/15 10:32:39;;;;;;;0.00;0.00;;;;;;;;;;5079179;28;20039;-82
2021/11/15 10:35:06;;;;;;;0.10;0.10;;;;;;;;;;5078316;28;20032;-82
2021/11/15 10:37:33;;;;;;;0.10;0.10;;;;;;;;;;5093600;28;20064;-82
2021/11/15 10:40:00;;;;;;;0.10;0.10;;;;;;;;;;5078935;28;20986;-82
2021/11/15 10:42:28;;;;;;;0.10;0.10;;;;;;;;;;5082213;28;20399;-82
2021/11/15 10:44:54;;;;;;;0.10;0.10;;;;;;;;;;5080958;28;20121;-82
2021/11/15 10:47:43;;;;;;;0.10;0.10;;;;;;;;;;5082623;28;20024;-82
2021/11/15 10:50:17;;;;;;;127.95;117.93;;;;;;;;;;5072410;28;20315;-83
2021/11/15 10:52:54;;;;;;;1999.90;999.90;;;;;;;;;;5073147;28;20131;-82
2021/11/15 10:55:20;;;;;;;3.25;3.15;;;;;;;;;;5077336;28;20107;-82
2021/11/15 10:57:48;;;;;;;32.87;30.97;;;;;;;;;;5067021;28;20044;-82
2021/11/15 11:00:14;;;;;;;0.10;0.10;;;;;;;;;;5067646;28;20040;-82
2021/11/15 11:02:40;;;;;;;0.20;0.20;;;;;;;;;;5080277;28;20024;-83
2021/11/15 11:05:09;;;;;;;0.20;0.20;;;;;;;;;;5077869;28;20309;-82
2021/11/15 11:07:36;;;;;;;0.10;0.10;;;;;;;;;;5072239;28;20416;-82
2021/11/15 11:10:02;;;;;;;;;;;;;;;;;;5068843;28;20032;-82
2021/11/15 11:12:44;;;;;;;0.20;0.20;;;;;;;;;;5065872;28;20571;-82
2021/11/15 11:15:37;;;;;;;0.10;0.10;;;;;;;;;;5079952;28;20032;-81
2021/11/15 11:18:09;;;;;;;0.30;0.30;;;;;;;;;;5095496;28;20035;-83
2021/11/15 11:26:11;;;;;;;0.10;0.10;;;;;;;;;;5077332;28;20108;-82
2021/11/15 11:28:39;;;;;;;0.10;0.10;;;;;;;;;;5090428;28;20025;-82
2021/11/15 11:31:06;;;;;;;0.10;0.10;;;;;;;;;;5068595;28;20405;-82
2021/11/15 11:33:33;;;;;;;0.20;0.20;;;;;;;;;;5081185;28;20024;-82
2021/11/15 11:35:58;;;;;;;;;;;;;;;;;;5079208;28;20054;-82
2021/11/15 11:38:25;;;;;;;0.20;0.20;;;;;;;;;;5069300;28;19917;-82
2021/11/15 11:40:52;;;;;;;0.20;0.20;;;;;;;;;;5073406;28;20054;-82
2021/11/15 11:43:19;;;;;;;0.20;0.20;;;;;;;;;;5077480;28;20327;-81
2021/11/15 11:45:45;;;;;;;0.20;0.20;;;;;;;;;;5079008;28;20502;-82
2021/11/15 11:48:11;;;;;;;0.20;0.20;;;;;;;;;;5079835;28;20549;-82
2021/11/15 11:50:37;;;;;;;0.20;0.20;;;;;;;;;;5080090;28;20043;-81
2021/11/15 11:53:04;;;;;;;0.20;0.20;;;;;;;;;;5071256;28;20666;-82
2021/11/15 11:55:32;;;;;;;0.20;0.20;;;;;;;;;;5086411;28;20036;-82
2021/11/15 11:57:58;;;;;;;0.20;0.20;;;;;;;;;;5079563;28;20035;-83
2021/11/15 12:00:24;;;;;;;0.20;0.20;;;;;;;;;;5083709;28;20040;-81
2021/11/15 12:03:03;;;;;;;0.20;0.20;;;;;;;;;;5079998;28;20406;-82
2021/11/15 12:05:30;;;;;;;0.20;0.20;;;;;;;;;;5078603;28;20298;-82
2021/11/15 12:07:58;;;;;;;0.20;0.20;;;;;;;;;;5071385;28;20025;-82
2021/11/15 12:10:46;;;;;;;0.20;0.20;;;;;;;;;;5084721;28;20036;-82
2021/11/15 12:13:12;;;;;;;0.45;0.45;;;;;;;;;;5092215;28;20089;-82
2021/11/15 12:15:42;;;;;;;0.10;0.10;;;;;;;;;;5079268;28;20020;-82
2021/11/15 12:18:22;;;;;;;0.20;0.20;;;;;;;;;;5079734;28;20024;-82
2021/11/15 12:21:00;;;;;;;0.10;0.10;;;;;;;;;;5068121;28;20037;-82
2021/11/15 12:23:26;;;;;;;0.10;0.10;;;;;;;;;;5077996;28;20525;-83
2021/11/15 12:26:11;;;;;;;0.10;0.10;;;;;;;;;;5092293;28;20043;-82
2021/11/15 12:28:38;;;;;;;0.20;0.20;;;;;;;;;;5076775;28;20032;-82
2021/11/15 12:31:04;;;;;;;0.20;0.20;;;;;;;;;;5076861;28;20040;-82
2021/11/15 12:33:36;;;;;;;0.20;0.20;;;;;;;;;;5081207;28;20104;-82
2021/11/15 12:36:11;;;;;;;0.20;0.20;;;;;;;;;;5079667;28;20373;-82
2021/11/15 12:38:47;;;;;;;0.10;0.10;;;;;;;;;;5083625;28;20029;-82
2021/11/15 12:41:19;;;;;;;0.10;0.10;;;;;;;;;;5075857;28;20032;-81
2021/11/15 12:44:07;;;;;;;0.10;0.10;;;;;;;;;;5076368;28;20038;-82
2021/11/15 12:46:46;;;;;;;0.10;0.10;;;;;;;;;;5092045;28;20111;-82
2021/11/15 12:49:15;;;;;;;0.10;0.10;;;;;;;;;;5077312;28;20075;-82
2021/11/15 12:51:41;;;;;;;0.10;0.10;;;;;;;;;;5094530;28;20561;-82
2021/11/15 12:54:07;;;;;;;0.10;0.10;;;;;;;;;;5064966;28;20678;-82
2021/11/15 12:56:38;;;;;;;0.10;0.10;;;;;;;;;;5078851;28;20020;-82
2021/11/15 12:59:05;;;;;;;0.10;0.10;;;;;;;;;;5077550;28;20042;-82
2021/11/15 13:01:31;;;;;;;0.10;0.10;;;;;;;;;;5094137;28;20032;-82
2021/11/15 13:03:57;;;;;;;0.10;0.10;;;;;;;;;;5068364;28;20090;-82
2021/11/15 13:06:25;;;;;;;0.40;0.40;;;;;;;;;;5099610;28;20035;-82
2021/11/15 13:08:51;;;;;;;0.30;0.30;;;;;;;;;;5082401;28;20419;-83
2021/11/15 13:11:17;;;;;;;0.30;0.30;;;;;;;;;;5070322;28;20028;-82
2021/11/15 13:13:44;;;;;;;0.30;0.30;;;;;;;;;;5089727;28;20274;-82
2021/11/15 13:16:10;;;;;;;0.30;0.30;;;;;;;;;;5094429;28;20055;-81
2021/11/15 13:18:36;;;;;;;0.20;0.20;;;;;;;;;;5097833;28;20024;-82
2021/11/15 13:21:08;;;;;;;0.30;0.30;;;;;;;;;;5080416;28;20032;-82
2021/11/15 13:23:34;;;;;;;0.30;0.30;;;;;;;;;;5083447;28;20041;-82
2021/11/15 13:26:00;;;;;;;0.30;0.30;;;;;;;;;;5076254;28;20557;-81
2021/11/15 13:28:30;;;;;;;0.40;0.40;;;;;;;;;;5097840;28;20411;-82
2021/11/15 13:30:56;;;;;;;0.40;0.40;;;;;;;;;;5079826;28;20099;-83
2021/11/15 13:33:22;;;;;;;0.40;0.40;;;;;;;;;;5083313;28;20115;-82
2021/11/15 13:35:48;;;;;;;0.40;0.40;;;;;;;;;;5082036;28;20028;-82
2021/11/15 13:38:14;;;;;;;0.30;0.30;;;;;;;;;;5086780;28;20032;-82
2021/11/15 13:40:42;;;;;;;0.40;0.40;;;;;;;;;;5070613;28;20055;-81
2021/11/15 13:43:09;;;;;;;0.38;0.38;;;;;;;;;;5084272;28;20165;-82
2021/11/15 13:45:35;;;;;;;0.50;0.50;;;;;;;;;;5097325;28;20070;-82
2021/11/15 13:48:02;;;;;;;0.40;0.40;;;;;;;;;;5068657;28;20028;-82
2021/11/15 13:50:28;;;;;;;0.40;0.40;;;;;;;;;;5080377;28;20028;-81
2021/11/15 13:52:54;;;;;;;0.40;0.40;;;;;;;;;;5089652;28;20954;-82
2021/11/15 13:55:20;;;;;;;0.30;0.30;;;;;;;;;;5085672;28;20035;-82
2021/11/15 13:57:46;;;;;;;0.35;0.35;;;;;;;;;;5095683;28;20709;-82
2021/11/15 14:00:13;;;;;;;0.40;0.40;;;;;;;;;;5081676;28;20035;-82
2021/11/15 14:02:39;;;;;;;0.30;0.30;;;;;;;;;;5068232;28;20801;-82
2021/11/15 14:05:06;;;;;;;0.40;0.40;;;;;;;;;;5092244;28;20044;-82
2021/11/15 14:07:32;;;;;;;0.40;0.40;;;;;;;;;;5094177;28;20024;-82
2021/11/15 14:09:58;;;;;;;0.30;0.30;;;;;;;;;;5078137;28;20062;-81
2021/11/15 14:12:24;;;;;;;0.30;0.30;;;;;;;;;;5082195;28;20042;-82
2021/11/15 14:14:50;;;;;;;0.40;0.40;;;;;;;;;;5096538;28;20040;-82
2021/11/15 14:17:17;;;;;;;0.30;0.30;;;;;;;;;;5077996;28;20035;-82
2021/11/15 14:19:43;;;;;;;0.40;0.40;;;;;;;;;;5078440;28;20540;-82
2021/11/15 14:22:10;;;;;;;0.30;0.30;;;;;;;;;;5094295;28;20040;-82
2021/11/15 14:24:37;;;;;;;0.40;0.40;;;;;;;;;;5066723;28;20036;-81
2021/11/15 14:27:03;;;;;;;0.30;0.30;;;;;;;;;;5067769;28;20071;-81
2021/11/15 14:29:29;;;;;;;0.30;0.30;;;;;;;;;;5079850;28;20590;-82
2021/11/15 14:31:56;;;;;;;0.30;0.30;;;;;;;;;;5077593;28;20106;-82
2021/11/15 14:34:23;;;;;;;0.30;0.30;;;;;;;;;;5092970;28;20309;-81
2021/11/15 14:36:49;;;;;;;0.95;0.95;;;;;;;;;;5079681;28;20856;-82
2021/11/15 14:39:15;;;;;;;0.30;0.30;;;;;;;;;;5081280;28;20058;-81
2021/11/15 14:41:42;;;;;;;0.30;0.30;;;;;;;;;;5080800;28;20024;-82
2021/11/15 14:44:09;;;;;;;;;;;;;;;;;;5071720;28;20054;-82
2021/11/15 14:46:36;;;;;;;0.45;0.45;;;;;;;;;;5072169;28;19908;-82
2021/11/15 14:49:02;;;;;;;0.40;0.40;;;;;;;;;;5095943;28;20035;-82
2021/11/15 14:51:29;;;;;;;0.40;0.40;;;;;;;;;;5080416;28;20560;-81